Time;durP1;ratioP1;P1;durP2;ratioP2;P2;SDS_P1;SDS_P2;PMS_P1;PMS_P2;Temp;Humidity;BMP_temperature;BMP_pressure;BME280_temperature;BME280_humidity;BME280_pressure;Samples;Min_cycle;Max_cycle;Signal;HPM_P1;HPM_P2
2023/06/29 01:18:05;;;;;;;20.08;11.27;;;17.50;99.90;;;;;;5008245;28;20111;-64
2023/06/29 01:20:38;;;;;;;24.58;11.07;;;17.60;99.90;;;;;;5010490;23;20950;-64
2023/06/29 01:23:14;;;;;;;17.83;11.18;;;17.50;99.90;;;;;;5012455;28;20142;-64
2023/06/29 01:25:41;;;;;;;22.50;12.20;;;17.60;99.90;;;;;;5007688;28;20137;-64
2023/06/29 01:28:09;;;;;;;20.10;10.95;;;17.60;99.90;;;;;;4992625;28;20049;-64
2023/06/29 01:30:48;;;;;;;19.40;11.63;;;17.60;99.90;;;;;;5008848;28;20046;-64
2023/06/29 01:33:21;;;;;;;26.42;12.55;;;17.60;99.90;;;;;;5009409;28;20053;-64
2023/06/29 01:35:52;;;;;;;22.38;11.98;;;17.60;99.90;;;;;;5009535;28;20046;-64
2023/06/29 01:38:26;;;;;;;22.30;12.32;;;17.60;99.90;;;;;;5010522;28;20054;-64
2023/06/29 01:40:55;;;;;;;17.38;11.73;;;17.60;99.90;;;;;;5009746;28;20050;-64
2023/06/29 01:43:24;;;;;;;22.23;12.27;;;17.60;99.90;;;;;;5009177;28;20049;-64
2023/06/29 01:45:51;;;;;;;22.17;11.40;;;17.60;99.90;;;;;;5009772;28;20300;-64
2023/06/29 01:48:18;;;;;;;22.50;11.18;;;17.60;99.90;;;;;;4991851;28;20115;-64
2023/06/29 01:50:45;;;;;;;19.05;11.10;;;17.60;99.90;;;;;;5010044;28;20065;-64
2023/06/29 01:53:11;;;;;;;16.77;10.50;;;17.60;99.90;;;;;;5009393;28;20140;-64
2023/06/29 01:55:37;;;;;;;21.23;12.15;;;17.60;99.90;;;;;;5009494;28;20385;-64
2023/06/29 01:58:04;;;;;;;21.02;11.40;;;17.60;99.90;;;;;;5009630;28;20042;-64
2023/06/29 02:00:30;;;;;;;22.27;11.07;;;17.60;99.90;;;;;;5008753;28;20104;-64
2023/06/29 02:02:57;;;;;;;21.42;11.55;;;17.60;99.90;;;;;;5009558;28;20121;-65
2023/06/29 02:05:23;;;;;;;18.80;11.95;;;17.50;99.90;;;;;;5008892;28;20116;-64
2023/06/29 02:07:50;;;;;;;23.42;11.52;;;17.60;99.90;;;;;;5008696;28;20042;-64
2023/06/29 02:10:16;;;;;;;23.05;12.07;;;17.50;99.90;;;;;;5008653;28;20056;-64
2023/06/29 02:12:42;;;;;;;18.17;12.15;;;17.50;99.90;;;;;;5009791;28;20710;-65
2023/06/29 02:15:10;;;;;;;19.70;12.38;;;17.60;99.90;;;;;;5018694;28;20085;-64
2023/06/29 02:17:36;;;;;;;18.23;11.95;;;17.50;99.90;;;;;;5009160;28;20123;-64
2023/06/29 02:20:03;;;;;;;23.35;12.45;;;17.50;99.90;;;;;;5008146;28;20062;-64
2023/06/29 02:22:29;;;;;;;18.15;11.55;;;17.50;99.90;;;;;;5008821;28;20136;-65
2023/06/29 02:24:56;;;;;;;23.95;13.02;;;17.50;99.90;;;;;;5005377;28;20107;-65
2023/06/29 02:27:25;;;;;;;23.55;12.80;;;17.50;99.90;;;;;;5006530;28;20046;-64
2023/06/29 02:29:52;;;;;;;28.17;12.40;;;17.50;99.90;;;;;;5007573;28;20050;-64
2023/06/29 02:32:18;;;;;;;28.55;13.20;;;17.50;99.90;;;;;;5008802;28;20045;-64
2023/06/29 02:34:44;;;;;;;24.92;13.73;;;17.50;99.90;;;;;;5009095;28;20079;-64
2023/06/29 02:37:11;;;;;;;22.70;12.85;;;17.50;99.90;;;;;;5009249;28;20046;-64
2023/06/29 02:39:37;;;;;;;23.05;13.55;;;17.60;99.90;;;;;;5007615;28;20543;-64
2023/06/29 02:42:05;;;;;;;20.63;12.32;;;17.50;99.90;;;;;;5007151;28;20111;-65
2023/06/29 02:44:31;;;;;;;21.45;13.25;;;17.50;99.90;;;;;;5008133;28;20091;-64
2023/06/29 02:46:58;;;;;;;25.98;13.30;;;17.60;99.90;;;;;;5008876;28;20196;-64
2023/06/29 02:49:25;;;;;;;24.60;12.55;;;17.60;99.90;;;;;;5002491;28;20473;-64
2023/06/29 02:51:51;;;;;;;23.20;13.70;;;17.60;99.90;;;;;;5009115;28;20099;-64
2023/06/29 02:54:18;;;;;;;25.73;12.88;;;17.50;99.90;;;;;;4974531;28;20401;-64
2023/06/29 02:56:44;;;;;;;24.85;12.80;;;17.50;99.90;;;;;;5008026;28;20104;-64
2023/06/29 02:59:11;;;;;;;25.15;13.13;;;17.50;99.90;;;;;;5007255;28;20042;-64
2023/06/29 03:01:37;;;;;;;25.63;12.82;;;17.50;99.90;;;;;;5007399;28;20075;-64
2023/06/29 03:04:03;;;;;;;22.92;13.13;;;17.50;99.90;;;;;;5008661;28;20071;-64
2023/06/29 03:06:30;;;;;;;25.08;12.85;;;17.50;99.90;;;;;;5007881;28;20192;-65
2023/06/29 03:08:56;;;;;;;28.25;13.88;;;17.50;99.90;;;;;;5008727;28;20071;-64
2023/06/29 03:11:23;;;;;;;24.20;12.73;;;17.60;99.90;;;;;;5003291;28;20038;-65
2023/06/29 03:13:50;;;;;;;25.15;13.40;;;17.50;99.90;;;;;;5007843;28;20511;-65
2023/06/29 03:16:17;;;;;;;24.52;13.18;;;17.50;99.90;;;;;;5008340;28;20054;-64
2023/06/29 03:18:44;;;;;;;26.60;12.25;;;17.50;99.90;;;;;;5005869;28;20072;-64
2023/06/29 03:21:10;;;;;;;23.42;12.45;;;17.50;99.90;;;;;;5003671;28;20050;-65
2023/06/29 03:23:37;;;;;;;29.15;12.43;;;17.50;99.90;;;;;;5006040;28;20061;-64
2023/06/29 03:26:03;;;;;;;27.63;11.45;;;17.50;99.90;;;;;;5005140;28;20049;-64
2023/06/29 03:28:29;;;;;;;20.20;12.07;;;17.50;99.90;;;;;;5005634;28;20849;-65
2023/06/29 03:30:56;;;;;;;18.50;11.77;;;17.50;99.90;;;;;;5005717;28;20053;-65
2023/06/29 03:33:22;;;;;;;25.15;13.98;;;17.50;99.90;;;;;;5006058;28;20078;-64
2023/06/29 03:35:48;;;;;;;25.15;12.27;;;17.50;99.90;;;;;;5002481;28;20496;-64
2023/06/29 03:38:17;;;;;;;28.10;12.93;;;17.50;99.90;;;;;;5006778;28;20061;-64
2023/06/29 03:40:44;;;;;;;20.08;13.23;;;17.50;99.90;;;;;;5006572;28;20053;-64
2023/06/29 03:43:10;;;;;;;20.85;12.13;;;17.50;99.90;;;;;;5006508;28;20046;-65
2023/06/29 03:45:36;;;;;;;20.52;13.35;;;17.50;99.90;;;;;;5006126;28;20068;-65
2023/06/29 03:48:03;;;;;;;26.10;13.40;;;17.50;99.90;;;;;;5006345;28;20050;-65
2023/06/29 03:50:29;;;;;;;25.13;13.88;;;17.50;99.90;;;;;;5006658;28;20093;-64
2023/06/29 03:52:56;;;;;;;25.23;13.30;;;17.50;99.90;;;;;;4988841;28;20072;-65
2023/06/29 03:55:24;;;;;;;24.00;12.63;;;17.60;99.90;;;;;;5006220;28;20048;-65
2023/06/29 03:57:51;;;;;;;26.52;13.63;;;17.60;99.90;;;;;;5005880;28;20038;-65
2023/06/29 04:00:17;;;;;;;23.38;13.40;;;17.60;99.90;;;;;;5006463;28;20522;-64
2023/06/29 04:02:44;;;;;;;32.40;13.95;;;17.60;99.90;;;;;;4989092;28;20038;-64
2023/06/29 04:05:10;;;;;;;25.70;13.75;;;17.60;99.90;;;;;;5006290;28;20474;-65
2023/06/29 04:07:37;;;;;;;23.75;13.45;;;17.60;99.90;;;;;;5006397;28;20536;-65
2023/06/29 04:10:04;;;;;;;23.73;12.70;;;17.70;99.90;;;;;;5006035;28;20079;-65
2023/06/29 04:12:30;;;;;;;24.42;12.95;;;17.70;99.90;;;;;;5006536;28;20046;-64
2023/06/29 04:14:57;;;;;;;22.35;13.00;;;17.70;99.90;;;;;;5006166;28;20085;-65
2023/06/29 04:17:23;;;;;;;26.33;12.45;;;17.70;99.90;;;;;;4988502;28;20060;-65
2023/06/29 04:19:50;;;;;;;25.58;12.95;;;17.70;99.90;;;;;;5006081;28;20096;-65
2023/06/29 04:22:16;;;;;;;25.33;12.50;;;17.80;99.90;;;;;;5005947;28;20058;-64
2023/06/29 04:24:43;;;;;;;21.85;11.93;;;17.80;99.90;;;;;;4988731;28;20599;-65
2023/06/29 04:27:10;;;;;;;23.33;12.40;;;17.90;99.90;;;;;;5006096;28;20041;-65
2023/06/29 04:29:36;;;;;;;22.30;12.43;;;17.90;99.90;;;;;;5001774;28;20119;-64
2023/06/29 04:32:03;;;;;;;21.33;12.65;;;18.00;99.90;;;;;;5009354;28;20034;-65
2023/06/29 04:34:29;;;;;;;20.08;11.85;;;18.00;99.90;;;;;;5010181;28;20053;-64
2023/06/29 04:36:56;;;;;;;21.13;11.85;;;18.00;99.90;;;;;;5009747;28;20147;-65
2023/06/29 04:39:22;;;;;;;21.38;12.45;;;18.10;99.90;;;;;;5009239;28;20056;-64
2023/06/29 04:41:49;;;;;;;17.48;11.73;;;18.10;99.90;;;;;;5009981;28;20125;-64
2023/06/29 04:44:16;;;;;;;18.27;11.57;;;18.10;99.90;;;;;;5003251;28;20046;-65
2023/06/29 04:46:43;;;;;;;20.95;12.00;;;18.20;99.90;;;;;;5010301;28;20054;-65
2023/06/29 04:49:09;;;;;;;19.35;12.30;;;18.20;99.90;;;;;;5008481;28;20043;-64
2023/06/29 04:51:37;;;;;;;22.50;11.70;;;18.20;99.90;;;;;;5009910;28;20050;-64
2023/06/29 04:54:07;;;;;;;16.83;11.23;;;18.30;99.90;;;;;;5008893;28;20042;-64
2023/06/29 04:56:33;;;;;;;23.02;11.32;;;18.30;99.90;;;;;;5009404;28;20042;-64
2023/06/29 04:59:00;;;;;;;21.13;12.43;;;18.30;99.90;;;;;;5005352;28;20053;-64
2023/06/29 05:01:26;;;;;;;20.77;11.85;;;18.30;99.90;;;;;;5001460;28;20395;-65
2023/06/29 05:03:53;;;;;;;22.23;11.93;;;18.30;99.90;;;;;;5009186;28;20046;-64
2023/06/29 05:06:20;;;;;;;21.27;11.50;;;18.40;99.90;;;;;;5008721;28;20041;-64
2023/06/29 05:08:47;;;;;;;22.20;12.15;;;18.50;99.90;;;;;;5009036;28;20057;-64
2023/06/29 05:11:13;;;;;;;20.23;11.82;;;18.50;99.90;;;;;;5009253;28;20480;-64
2023/06/29 05:13:40;;;;;;;21.17;12.75;;;18.50;99.90;;;;;;5008583;28;20049;-64
2023/06/29 05:16:07;;;;;;;15.80;11.15;;;18.60;99.90;;;;;;5008791;28;20118;-64
2023/06/29 05:18:36;;;;;;;25.02;11.65;;;18.70;99.90;;;;;;5008867;28;20097;-64
2023/06/29 05:21:03;;;;;;;23.15;11.75;;;18.70;99.90;;;;;;5009235;28;20061;-64
2023/06/29 05:23:30;;;;;;;24.35;11.82;;;18.80;99.90;;;;;;5008424;28;20078;-65
2023/06/29 05:25:56;;;;;;;20.05;11.70;;;18.80;99.90;;;;;;5009522;28;20082;-64
2023/06/29 05:28:22;;;;;;;21.10;11.43;;;18.80;99.90;;;;;;5008315;28;20480;-64
2023/06/29 05:30:49;;;;;;;18.67;11.30;;;18.90;99.90;;;;;;5009291;28;20060;-65
2023/06/29 05:33:15;;;;;;;19.58;12.05;;;19.00;99.90;;;;;;5008563;28;20081;-64
2023/06/29 05:35:43;;;;;;;20.20;11.85;;;19.00;99.90;;;;;;5008674;28;20561;-64
2023/06/29 05:38:10;;;;;;;26.65;11.13;;;19.00;99.90;;;;;;5009147;28;20061;-64
2023/06/29 05:40:36;;;;;;;19.42;11.93;;;19.10;99.90;;;;;;5007659;28;20075;-64
2023/06/29 05:43:03;;;;;;;17.85;10.80;;;19.20;99.90;;;;;;4991720;28;20081;-64
2023/06/29 05:45:30;;;;;;;17.38;10.73;;;19.20;99.90;;;;;;4990284;28;20057;-64
2023/06/29 05:47:56;;;;;;;21.58;11.45;;;19.30;99.90;;;;;;5009103;28;20048;-64
2023/06/29 05:50:22;;;;;;;23.27;12.35;;;19.40;99.90;;;;;;4990808;28;20081;-64
2023/06/29 05:52:49;;;;;;;20.35;11.50;;;19.40;99.90;;;;;;5008408;28;20506;-64
2023/06/29 05:55:15;;;;;;;22.45;11.65;;;19.40;99.90;;;;;;5008508;28;20156;-64
2023/06/29 05:57:42;;;;;;;21.17;11.05;;;19.40;99.90;;;;;;5007716;28;20046;-64
2023/06/29 06:00:11;;;;;;;21.52;11.40;;;19.40;99.90;;;;;;5008725;28;20053;-64
2023/06/29 06:02:37;;;;;;;19.10;10.80;;;19.40;99.90;;;;;;5006862;28;20115;-65
2023/06/29 06:05:05;;;;;;;16.27;10.60;;;19.40;99.90;;;;;;5008646;28;20535;-64
2023/06/29 06:07:32;;;;;;;24.63;11.57;;;19.40;99.90;;;;;;5007273;28;20053;-64
2023/06/29 06:09:58;;;;;;;17.42;11.30;;;19.50;99.90;;;;;;5008633;28;20050;-65
2023/06/29 06:12:25;;;;;;;23.60;10.40;;;19.50;99.90;;;;;;5007640;28;20057;-64
2023/06/29 06:14:52;;;;;;;18.50;11.63;;;19.50;99.90;;;;;;5007798;28;20042;-64
2023/06/29 06:17:18;;;;;;;19.70;12.20;;;19.60;99.90;;;;;;5007956;28;20084;-63
2023/06/29 06:19:45;;;;;;;21.27;11.05;;;19.70;99.90;;;;;;5006873;28;20054;-64
2023/06/29 06:22:12;;;;;;;22.42;11.68;;;19.80;99.90;;;;;;5007581;28;20464;-64
2023/06/29 06:24:38;;;;;;;19.25;11.55;;;19.90;99.90;;;;;;5006571;28;20041;-64
2023/06/29 06:27:05;;;;;;;17.55;10.93;;;20.00;99.90;;;;;;5006235;28;20040;-64
2023/06/29 06:29:31;;;;;;;17.23;11.27;;;20.10;99.90;;;;;;5007210;28;20385;-64
2023/06/29 06:31:58;;;;;;;15.68;10.90;;;20.20;99.90;;;;;;5007557;28;20116;-64
2023/06/29 06:34:24;;;;;;;14.10;11.10;;;20.30;99.90;;;;;;5007751;28;20050;-65
2023/06/29 06:36:52;;;;;;;16.40;11.10;;;20.40;99.90;;;;;;5006845;28;20141;-65
2023/06/29 06:39:18;;;;;;;16.95;11.77;;;20.50;99.90;;;;;;5006198;28;20125;-65
2023/06/29 06:41:45;;;;;;;19.85;11.18;;;20.60;99.90;;;;;;5004004;28;20047;-65
2023/06/29 06:44:11;;;;;;;18.23;11.20;;;20.70;99.90;;;;;;5007568;28;20037;-65
2023/06/29 06:46:38;;;;;;;15.32;10.32;;;20.80;99.90;;;;;;5006822;28;20408;-64
2023/06/29 06:49:04;;;;;;;20.15;11.30;;;20.90;99.90;;;;;;5007366;28;20076;-64
2023/06/29 06:51:31;;;;;;;18.58;11.57;;;20.90;99.90;;;;;;5006483;28;20506;-65
2023/06/29 06:53:57;;;;;;;16.23;10.88;;;21.00;99.90;;;;;;5005782;28;20050;-64
2023/06/29 06:56:24;;;;;;;18.65;10.70;;;21.00;99.90;;;;;;4975728;28;20389;-65
2023/06/29 06:58:50;;;;;;;19.83;10.85;;;21.00;99.90;;;;;;5002188;28;20046;-65
2023/06/29 07:01:17;;;;;;;19.73;11.93;;;21.10;99.90;;;;;;5007793;28;20054;-64
2023/06/29 07:03:44;;;;;;;16.38;10.50;;;21.00;99.90;;;;;;5005086;28;20050;-65
2023/06/29 07:06:10;;;;;;;17.13;10.65;;;21.00;99.90;;;;;;5006297;28;20042;-65
2023/06/29 07:08:36;;;;;;;19.05;10.85;;;21.00;99.90;;;;;;5004957;28;20389;-64
2023/06/29 07:11:03;;;;;;;15.48;11.07;;;21.00;99.90;;;;;;5006978;28;20534;-64
2023/06/29 07:13:31;;;;;;;15.90;10.52;;;20.90;99.90;;;;;;5006160;28;20385;-65
2023/06/29 07:15:57;;;;;;;17.17;11.68;;;20.90;99.90;;;;;;5006195;28;20473;-65
2023/06/29 07:18:24;;;;;;;14.55;10.43;;;20.90;99.90;;;;;;5007440;28;20112;-65
2023/06/29 07:20:51;;;;;;;20.02;10.95;;;20.90;99.90;;;;;;5005703;28;20085;-65
2023/06/29 07:23:19;;;;;;;18.75;10.75;;;20.90;99.90;;;;;;5005421;28;20508;-65
2023/06/29 07:25:45;;;;;;;18.05;10.82;;;20.90;99.90;;;;;;5001486;28;20056;-64
2023/06/29 07:28:12;;;;;;;20.48;10.25;;;20.80;99.90;;;;;;5006239;28;20084;-65
2023/06/29 07:30:38;;;;;;;15.93;9.20;;;20.80;99.90;;;;;;5003405;28;20049;-65
2023/06/29 07:33:05;;;;;;;14.02;10.15;;;20.80;99.90;;;;;;4988700;28;20736;-65
2023/06/29 07:35:31;;;;;;;17.75;9.80;;;20.80;99.90;;;;;;4999364;28;20052;-64
2023/06/29 07:37:58;;;;;;;18.83;9.77;;;20.80;99.90;;;;;;5005531;28;20052;-64
2023/06/29 07:40:24;;;;;;;15.25;8.80;;;20.70;99.90;;;;;;5006454;28;20061;-65
2023/06/29 07:42:51;;;;;;;17.75;9.43;;;20.70;99.90;;;;;;5005210;28;20103;-65
2023/06/29 07:45:18;;;;;;;13.13;9.18;;;20.70;99.90;;;;;;5004808;28;20138;-64
2023/06/29 07:47:44;;;;;;;13.85;8.48;;;20.70;99.90;;;;;;5004926;28;20456;-65
2023/06/29 07:50:11;;;;;;;15.40;9.38;;;20.70;99.90;;;;;;5005144;28;20121;-65
2023/06/29 07:52:37;;;;;;;15.63;9.27;;;20.60;99.90;;;;;;4988673;28;20504;-65
2023/06/29 07:55:04;;;;;;;13.57;9.13;;;20.60;99.90;;;;;;5000347;28;20050;-65
2023/06/29 07:57:31;;;;;;;21.55;8.95;;;20.60;99.90;;;;;;4998321;28;20130;-64
2023/06/29 07:59:57;;;;;;;19.02;9.73;;;20.60;99.90;;;;;;5002807;28;20082;-65
2023/06/29 08:02:24;;;;;;;19.45;10.43;;;20.60;99.90;;;;;;5005701;28;20112;-65
2023/06/29 08:04:51;;;;;;;14.95;9.90;;;20.50;99.90;;;;;;4986412;28;20117;-65
2023/06/29 08:07:17;;;;;;;14.57;9.73;;;20.50;99.90;;;;;;4988601;28;20129;-64
2023/06/29 08:09:44;;;;;;;18.95;10.18;;;20.50;99.90;;;;;;4992421;28;20085;-65
2023/06/29 08:12:11;;;;;;;16.73;9.00;;;20.50;99.90;;;;;;5003499;28;20042;-65
2023/06/29 08:14:38;;;;;;;16.20;9.57;;;20.50;99.90;;;;;;5004425;28;20050;-66
2023/06/29 08:17:05;;;;;;;14.38;8.85;;;20.50;99.90;;;;;;5002700;28;20042;-65
2023/06/29 08:19:32;;;;;;;15.95;9.65;;;20.60;99.90;;;;;;5007711;28;20096;-65
2023/06/29 08:21:58;;;;;;;17.05;9.38;;;20.60;99.90;;;;;;5004809;28;20125;-65
2023/06/29 08:24:25;;;;;;;16.90;9.82;;;20.60;99.90;;;;;;5002789;28;20717;-65
2023/06/29 08:26:51;;;;;;;17.65;10.57;;;20.60;99.90;;;;;;5004397;28;20412;-66
2023/06/29 08:29:19;;;;;;;16.77;9.27;;;20.70;99.90;;;;;;5002896;28;20052;-65
2023/06/29 08:31:46;;;;;;;18.70;9.73;;;20.70;99.90;;;;;;4992702;28;20041;-65
2023/06/29 08:34:12;;;;;;;15.52;9.57;;;20.80;99.90;;;;;;5009286;28;20474;-65
2023/06/29 08:36:39;;;;;;;13.95;9.70;;;20.80;99.90;;;;;;5009923;28;20054;-65
2023/06/29 08:39:05;;;;;;;18.90;10.57;;;20.90;99.90;;;;;;4991460;28;20400;-65
2023/06/29 08:41:31;;;;;;;21.95;11.13;;;20.90;99.90;;;;;;5009737;28;20058;-65
2023/06/29 08:43:58;;;;;;;18.02;11.20;;;21.00;99.90;;;;;;5009161;28;20030;-65
2023/06/29 08:46:27;;;;;;;21.63;11.57;;;21.00;99.90;;;;;;5010058;28;20045;-65
2023/06/29 08:48:54;;;;;;;17.88;11.02;;;21.10;99.90;;;;;;4992211;28;20042;-65
2023/06/29 08:51:22;;;;;;;19.33;11.65;;;21.20;99.90;;;;;;5009149;28;20049;-65
2023/06/29 08:53:50;;;;;;;19.98;11.68;;;21.20;99.90;;;;;;5009218;28;20108;-65
2023/06/29 08:56:18;;;;;;;22.50;11.57;;;21.30;99.90;;;;;;5009224;28;20137;-66
2023/06/29 08:58:45;;;;;;;22.67;12.82;;;21.40;99.90;;;;;;5009392;28;20077;-66
2023/06/29 09:01:12;;;;;;;26.02;11.70;;;21.40;99.90;;;;;;4988396;28;20057;-65
2023/06/29 09:03:39;;;;;;;19.95;12.00;;;21.40;99.90;;;;;;5008858;28;20057;-65
2023/06/29 09:06:06;;;;;;;19.35;11.50;;;21.40;99.90;;;;;;5009031;28;20038;-66
2023/06/29 09:08:36;;;;;;;20.42;11.90;;;21.40;99.90;;;;;;4990951;28;20615;-65
2023/06/29 09:11:03;;;;;;;20.00;12.25;;;21.40;99.90;;;;;;5009425;28;20579;-65
2023/06/29 09:13:33;;;;;;;18.27;11.75;;;21.40;99.90;;;;;;4991500;28;20049;-65
2023/06/29 09:16:03;;;;;;;21.83;12.55;;;21.40;99.90;;;;;;5008045;28;20112;-65
2023/06/29 09:18:32;;;;;;;18.52;11.85;;;21.50;99.90;;;;;;5008844;28;20042;-66
2023/06/29 09:20:59;;;;;;;21.90;11.57;;;21.50;99.90;;;;;;5008110;28;20050;-66
2023/06/29 09:23:26;;;;;;;20.48;12.43;;;21.60;99.90;;;;;;5009319;28;20038;-66
2023/06/29 09:25:55;;;;;;;21.38;12.50;;;21.60;99.90;;;;;;5008274;28;20485;-66
2023/06/29 09:28:22;;;;;;;19.88;12.15;;;21.70;99.90;;;;;;4994033;28;20042;-66
2023/06/29 09:30:51;;;;;;;17.55;11.32;;;21.80;99.90;;;;;;5008370;28;20050;-65
2023/06/29 09:33:19;;;;;;;24.42;12.55;;;21.80;99.90;;;;;;5007748;28;20057;-65
2023/06/29 09:35:47;;;;;;;20.73;11.88;;;21.90;99.90;;;;;;5007295;28;20046;-67
2023/06/29 09:38:18;;;;;;;20.02;11.73;;;21.90;99.90;;;;;;5003483;28;20046;-66
2023/06/29 09:40:52;;;;;;;22.05;11.80;;;22.00;99.90;;;;;;5008995;28;20105;-65
2023/06/29 09:43:20;;;;;;;21.10;11.57;;;22.10;99.90;;;;;;5001969;28;20046;-65
2023/06/29 09:45:46;;;;;;;20.38;11.52;;;22.20;99.90;;;;;;5008226;28;20124;-66
2023/06/29 09:48:16;;;;;;;20.48;11.27;;;22.20;99.90;;;;;;4996206;28;20054;-66
2023/06/29 09:50:50;;;;;;;18.58;11.63;;;22.30;99.90;;;;;;4998357;28;20041;-65
2023/06/29 09:53:16;;;;;;;20.08;12.63;;;22.40;99.90;;;;;;4997369;28;20050;-65
2023/06/29 09:55:43;;;;;;;21.75;12.88;;;22.40;99.90;;;;;;5007702;28;20038;-65
2023/06/29 09:58:12;;;;;;;20.23;12.85;;;22.40;99.90;;;;;;5005467;28;20064;-66
2023/06/29 10:00:40;;;;;;;21.33;12.77;;;22.40;99.90;;;;;;5001818;28;20060;-66
2023/06/29 10:03:07;;;;;;;22.65;13.48;;;22.50;99.90;;;;;;5006499;28;20118;-66
2023/06/29 10:05:33;;;;;;;20.80;12.25;;;22.40;99.90;;;;;;5002356;28;20041;-65
2023/06/29 10:08:04;;;;;;;18.75;12.40;;;22.40;99.90;;;;;;5000271;28;20128;-65
2023/06/29 10:10:35;;;;;;;32.22;12.93;;;22.50;99.90;;;;;;4997536;28;20046;-66
2023/06/29 10:13:04;;;;;;;20.85;12.98;;;22.50;99.90;;;;;;5007057;28;20038;-65
2023/06/29 10:15:35;;;;;;;20.80;12.73;;;22.60;99.90;;;;;;5008884;28;20434;-66
2023/06/29 10:18:11;;;;;;;20.63;12.25;;;22.70;99.90;;;;;;5006912;28;20146;-65
2023/06/29 10:20:43;;;;;;;21.38;12.02;;;22.80;99.90;;;;;;5007664;28;20104;-66
2023/06/29 10:23:12;;;;;;;19.88;12.57;;;22.90;99.90;;;;;;5006574;28;20168;-65
2023/06/29 10:25:41;;;;;;;;;;;23.00;99.90;;;;;;5006868;28;20038;-66
2023/06/29 10:28:09;;;;;;;19.57;11.87;;;23.10;99.90;;;;;;5004538;28;19971;-66
2023/06/29 10:30:50;;;;;;;24.52;12.88;;;23.20;99.90;;;;;;5006063;28;20458;-66
2023/06/29 10:33:23;;;;;;;21.98;12.30;;;23.20;96.10;;;;;;5007028;28;20696;-66
2023/06/29 10:36:03;;;;;;;22.20;12.80;;;23.20;94.30;;;;;;5007212;28;20453;-66
2023/06/29 10:38:34;;;;;;;21.85;13.65;;;23.20;94.10;;;;;;5007268;28;20042;-66
2023/06/29 10:41:05;;;;;;;20.30;12.63;;;23.10;92.30;;;;;;5007804;28;20050;-66
2023/06/29 10:43:58;;;;;;;18.85;12.23;;;23.00;88.50;;;;;;5006725;28;20468;-66
2023/06/29 10:46:49;;;;;;;19.52;12.60;;;22.90;89.10;;;;;;5007572;28;20038;-66
2023/06/29 10:49:26;;;;;;;18.45;11.75;;;22.80;85.90;;;;;;5000992;28;20048;-65
2023/06/29 10:51:54;;;;;;;16.10;11.15;;;22.60;90.10;;;;;;5007261;28;20053;-67
2023/06/29 10:54:27;;;;;;;21.08;11.80;;;22.50;87.00;;;;;;5006169;28;20065;-66
2023/06/29 10:57:11;;;;;;;21.77;12.00;;;22.40;88.90;;;;;;4999696;28;20141;-67
2023/06/29 10:59:39;;;;;;;20.02;11.20;;;22.40;90.40;;;;;;4998824;28;20053;-66
2023/06/29 11:02:08;;;;;;;18.13;12.20;;;22.30;92.80;;;;;;4997765;28;20113;-66
2023/06/29 11:04:34;;;;;;;18.02;11.40;;;22.30;93.50;;;;;;4997947;28;20038;-66
2023/06/29 11:07:07;;;;;;;19.08;11.40;;;22.30;96.20;;;;;;5004871;28;20170;-66
2023/06/29 11:09:34;;;;;;;22.77;11.48;;;22.30;96.40;;;;;;5003366;28;20038;-66
2023/06/29 11:12:00;;;;;;;17.77;11.65;;;22.30;96.30;;;;;;5005386;28;20044;-66
2023/06/29 11:14:27;;;;;;;17.95;11.77;;;22.30;96.10;;;;;;5004655;28;20109;-65
2023/06/29 11:16:54;;;;;;;22.85;13.15;;;22.20;97.20;;;;;;5004854;28;20404;-66
2023/06/29 11:19:27;;;;;;;16.48;12.68;;;22.20;95.90;;;;;;5003186;28;20057;-66
2023/06/29 11:21:54;;;;;;;20.05;12.40;;;22.10;95.30;;;;;;4988294;28;20132;-65
2023/06/29 11:24:22;;;;;;;18.52;13.20;;;22.10;93.20;;;;;;5005096;28;20042;-65
2023/06/29 11:26:48;;;;;;;23.70;13.13;;;22.00;94.20;;;;;;5005344;28;20457;-66
2023/06/29 11:29:15;;;;;;;18.35;12.57;;;22.00;95.20;;;;;;5003985;28;20046;-65
2023/06/29 11:31:41;;;;;;;20.50;12.70;;;21.90;95.60;;;;;;5004947;28;20045;-65
2023/06/29 11:34:12;;;;;;;25.30;13.93;;;21.90;96.10;;;;;;5003642;28;20108;-65
2023/06/29 11:36:39;;;;;;;29.30;13.20;;;21.90;96.80;;;;;;5005709;28;20050;-66
2023/06/29 11:39:08;;;;;;;23.88;13.25;;;21.90;95.20;;;;;;5002899;28;20099;-67
2023/06/29 11:41:39;;;;;;;18.80;12.95;;;21.90;95.40;;;;;;5006126;28;20135;-65
2023/06/29 11:44:06;;;;;;;20.02;13.52;;;21.90;96.30;;;;;;5003235;28;20041;-64
2023/06/29 12:09:11;;;;;;;21.63;12.73;;;22.00;99.90;;;;;;5004734;23;20058;-65
2023/06/29 12:11:37;;;;;;;72.50;17.40;;;22.10;99.90;;;;;;5001999;28;20419;-64
2023/06/29 12:14:02;;;;;;;20.33;14.15;;;22.10;99.90;;;;;;5009468;28;20399;-65
2023/06/29 12:16:28;;;;;;;19.20;13.23;;;22.10;99.30;;;;;;5022295;28;20037;-65
2023/06/29 12:18:55;;;;;;;23.52;13.50;;;22.10;99.90;;;;;;5006405;28;20129;-66
2023/06/29 12:21:21;;;;;;;22.10;13.65;;;22.10;99.90;;;;;;5021968;28;20111;-67
2023/06/29 12:23:47;;;;;;;20.80;13.77;;;22.20;99.50;;;;;;5000166;28;20058;-67
2023/06/29 12:26:15;;;;;;;21.30;13.38;;;22.20;97.90;;;;;;4997270;28;20105;-67
2023/06/29 12:28:40;;;;;;;20.50;13.00;;;22.10;98.50;;;;;;5006993;28;20088;-67
2023/06/29 12:31:07;;;;;;;19.38;12.85;;;22.20;98.50;;;;;;4980285;28;20476;-66
2023/06/29 12:33:33;;;;;;;21.75;13.48;;;22.20;99.00;;;;;;5010050;28;20658;-67
2023/06/29 12:35:59;;;;;;;21.05;13.98;;;22.30;99.70;;;;;;5023897;28;20050;-67
2023/06/29 12:38:25;;;;;;;21.52;14.20;;;22.40;98.80;;;;;;5001226;28;20054;-66
2023/06/29 12:40:51;;;;;;;18.48;12.80;;;22.60;98.10;;;;;;5022316;28;20064;-67
2023/06/29 12:43:17;;;;;;;20.73;13.57;;;22.70;98.10;;;;;;4979282;28;20504;-67
2023/06/29 12:45:42;;;;;;;18.05;13.60;;;22.90;97.40;;;;;;4975581;28;20057;-66
2023/06/29 12:48:09;;;;;;;24.85;14.35;;;23.00;96.40;;;;;;4990430;28;20220;-66
2023/06/29 12:50:34;;;;;;;22.48;13.68;;;23.10;93.30;;;;;;5004402;28;20108;-67
2023/06/29 12:53:00;;;;;;;22.38;14.82;;;23.20;91.60;;;;;;5029042;28;20507;-66
2023/06/29 12:55:26;;;;;;;20.73;13.73;;;23.20;90.70;;;;;;4981473;28;20092;-66
2023/06/29 12:57:51;;;;;;;18.48;12.20;;;23.10;90.30;;;;;;5027474;28;20380;-66
2023/06/29 13:00:21;;;;;;;16.85;13.00;;;23.10;90.60;;;;;;4975705;28;20056;-66
2023/06/29 13:02:51;;;;;;;18.65;12.00;;;23.10;91.00;;;;;;5000597;28;20125;-66
2023/06/29 13:05:17;;;;;;;19.45;11.18;;;23.20;90.50;;;;;;4993026;28;20088;-66
2023/06/29 13:07:43;;;;;;;20.85;12.05;;;23.30;93.40;;;;;;5005389;28;20084;-66
2023/06/29 13:10:11;;;;;;;21.35;13.32;;;23.50;87.10;;;;;;5025080;28;20103;-68
2023/06/29 13:12:39;;;;;;;19.83;13.32;;;23.60;86.30;;;;;;5020081;28;20515;-67
2023/06/29 13:15:06;;;;;;;15.70;11.43;;;23.70;83.70;;;;;;5020937;28;20099;-66
2023/06/29 13:17:32;;;;;;;21.85;12.27;;;23.90;86.30;;;;;;5016799;28;20061;-66
2023/06/29 13:19:58;;;;;;;16.67;12.55;;;23.90;84.90;;;;;;5000312;28;20412;-66
2023/06/29 13:22:23;;;;;;;18.65;12.77;;;24.00;79.10;;;;;;4997739;28;20046;-66
2023/06/29 13:24:49;;;;;;;21.48;13.02;;;24.10;79.20;;;;;;5018782;28;20045;-66
2023/06/29 13:27:15;;;;;;;17.17;12.75;;;24.20;76.20;;;;;;4997954;28;20057;-67
2023/06/29 13:29:41;;;;;;;19.42;12.35;;;24.30;82.30;;;;;;5017270;28;20050;-66
2023/06/29 13:32:08;;;;;;;17.48;12.70;;;24.60;72.80;;;;;;4995602;28;20038;-66
2023/06/29 13:34:33;;;;;;;16.48;12.00;;;24.70;70.60;;;;;;4990685;28;20136;-67
2023/06/29 13:36:59;;;;;;;20.15;13.07;;;24.70;60.70;;;;;;4994047;28;20150;-66
2023/06/29 13:39:25;;;;;;;28.63;12.98;;;24.80;61.60;;;;;;5001512;28;20458;-65
2023/06/29 13:41:51;;;;;;;20.40;14.60;;;24.90;58.20;;;;;;5026549;28;21102;-65
2023/06/29 13:44:17;;;;;;;22.15;13.18;;;24.90;48.20;;;;;;5010187;28;20041;-64
2023/06/29 13:46:46;;;;;;;21.63;12.95;;;24.80;42.40;;;;;;5022518;28;20077;-65
2023/06/29 13:49:15;;;;;;;19.23;12.05;;;24.70;30.60;;;;;;5024586;28;20128;-64
2023/06/29 13:51:40;;;;;;;;;;;24.60;34.40;;;;;;5001787;28;20779;-65
2023/06/29 13:54:07;;;;;;;16.63;11.38;;;24.50;30.70;;;;;;5000338;28;19932;-65
2023/06/29 13:56:40;;;;;;;17.30;11.93;;;24.50;36.50;;;;;;5014979;28;20093;-64
2023/06/29 13:59:08;;;;;;;17.00;12.52;;;24.40;38.20;;;;;;5012678;28;20049;-65
2023/06/29 14:01:38;;;;;;;16.40;11.02;;;24.40;42.80;;;;;;5012345;28;20519;-65
2023/06/29 14:04:11;;;;;;;18.73;11.32;;;24.30;34.70;;;;;;5022125;28;20162;-64
2023/06/29 14:06:39;;;;;;;21.00;12.98;;;24.30;40.70;;;;;;5008947;28;20061;-65
2023/06/29 14:09:07;;;;;;;16.53;11.60;;;24.30;37.70;;;;;;5020665;28;20045;-64